Time;durP1;ratioP1;P1;durP2;ratioP2;P2;SDS_P1;SDS_P2;PMS_P1;PMS_P2;Temp;Humidity;BMP_temperature;BMP_pressure;BME280_temperature;BME280_humidity;BME280_pressure;Samples;Min_cycle;Max_cycle;Signal;HPM_P1;HPM_P2
2023/09/28 00:00:59;;;;;;;7.95;3.08;;;19.40;99.90;;;;;;5091171;28;38594;-77
2023/09/28 00:03:25;;;;;;;5.85;3.35;;;19.40;99.90;;;;;;5072945;28;36098;-78
2023/09/28 00:05:51;;;;;;;6.70;3.08;;;19.20;99.90;;;;;;5067411;28;39260;-77
2023/09/28 00:08:18;;;;;;;5.35;3.40;;;19.20;99.90;;;;;;5067216;28;38765;-77
2023/09/28 00:10:44;;;;;;;10.45;3.33;;;19.20;99.90;;;;;;5065528;28;39306;-77
2023/09/28 00:13:10;;;;;;;6.15;3.45;;;19.20;99.90;;;;;;5066756;28;35757;-77
2023/09/28 00:15:37;;;;;;;8.82;3.28;;;19.20;99.90;;;;;;5086819;28;38367;-77
2023/09/28 00:18:04;;;;;;;5.47;3.00;;;19.20;99.90;;;;;;5084611;28;38410;-77
2023/09/28 00:20:30;;;;;;;6.28;3.60;;;19.20;99.90;;;;;;5064331;28;37862;-79
2023/09/28 00:22:57;;;;;;;9.55;4.03;;;19.20;99.90;;;;;;5082612;28;37691;-78
2023/09/28 00:25:23;;;;;;;4.30;3.40;;;19.10;99.90;;;;;;5071930;28;38055;-78
2023/09/28 00:27:55;;;;;;;7.80;4.03;;;19.10;99.90;;;;;;5091658;28;39328;-77
2023/09/28 00:30:24;;;;;;;7.82;3.47;;;19.10;99.90;;;;;;5070835;28;38469;-77
2023/09/28 00:32:52;;;;;;;5.03;3.10;;;19.00;99.90;;;;;;5091234;28;38154;-77
2023/09/28 00:35:19;;;;;;;7.85;3.83;;;18.90;99.90;;;;;;5094594;28;39353;-78
2023/09/28 00:37:45;;;;;;;6.47;3.90;;;18.90;99.90;;;;;;5081816;28;37875;-78
2023/09/28 00:40:21;;;;;;;5.22;3.70;;;18.90;99.90;;;;;;5065258;27;37732;-77
2023/09/28 00:42:48;;;;;;;8.18;4.20;;;18.90;99.90;;;;;;5087340;27;37876;-79
2023/09/28 00:45:14;;;;;;;6.80;3.60;;;18.90;99.90;;;;;;5071902;28;37829;-79
2023/09/28 00:47:42;;;;;;;6.70;3.80;;;18.90;99.90;;;;;;5068089;28;37886;-78
2023/09/28 00:50:16;;;;;;;6.47;3.70;;;18.90;99.90;;;;;;5068968;28;38485;-76
2023/09/28 00:52:44;;;;;;;7.05;3.78;;;18.90;99.90;;;;;;5080014;28;38314;-76
2023/09/28 00:55:12;;;;;;;7.18;4.07;;;18.80;99.90;;;;;;5081800;28;40109;-77
2023/09/28 00:57:41;;;;;;;6.35;4.38;;;18.70;99.90;;;;;;5068779;28;38412;-77
2023/09/28 01:00:28;;;;;;;8.40;4.68;;;18.70;99.90;;;;;;5088287;27;39237;-77
2023/09/28 01:02:59;;;;;;;6.57;4.32;;;18.80;99.90;;;;;;5053367;28;47954;-77
2023/09/28 01:05:27;;;;;;;8.25;4.88;;;18.80;99.90;;;;;;5083440;28;38769;-77
2023/09/28 01:07:55;;;;;;;9.27;4.10;;;18.80;99.90;;;;;;5091550;28;38773;-77
2023/09/28 01:10:24;;;;;;;7.28;4.72;;;18.80;99.90;;;;;;5092643;27;39332;-77
2023/09/28 01:12:51;;;;;;;6.07;4.00;;;18.90;99.90;;;;;;5075964;28;36100;-76
2023/09/28 01:15:17;;;;;;;7.28;4.47;;;18.90;99.90;;;;;;5091657;28;39172;-76
2023/09/28 01:17:44;;;;;;;10.88;4.88;;;18.90;99.90;;;;;;5070898;28;39110;-76
2023/09/28 01:20:35;;;;;;;7.55;4.60;;;18.90;99.90;;;;;;5080725;27;39217;-77
2023/09/28 01:22:57;;;;;;;7.78;4.40;;;18.90;99.90;;;;;;5087043;28;37077;-77
2023/09/28 01:25:24;;;;;;;9.63;4.35;;;18.90;99.90;;;;;;5067974;28;37627;-77
2023/09/28 01:27:50;;;;;;;7.63;4.38;;;18.90;99.90;;;;;;5082393;28;38488;-77
2023/09/28 01:30:16;;;;;;;8.65;4.70;;;18.80;99.90;;;;;;5090743;28;40377;-77
2023/09/28 01:32:43;;;;;;;7.10;4.10;;;18.80;99.90;;;;;;5066317;28;37060;-77
2023/09/28 01:35:11;;;;;;;8.77;4.38;;;18.70;99.90;;;;;;5059386;28;38884;-77
2023/09/28 01:38:00;;;;;;;9.02;4.70;;;18.70;99.90;;;;;;5059369;28;38037;-77
2023/09/28 01:40:26;;;;;;;6.70;3.92;;;18.70;99.90;;;;;;5091471;28;37484;-77
2023/09/28 01:42:53;;;;;;;8.00;4.10;;;18.60;99.90;;;;;;5081230;28;37836;-77
2023/09/28 01:45:19;;;;;;;7.50;3.50;;;18.60;99.90;;;;;;5061663;28;37735;-77
2023/09/28 01:47:45;;;;;;;8.50;3.58;;;18.60;99.90;;;;;;5080279;28;39295;-78
2023/09/28 01:50:11;;;;;;;11.60;3.72;;;18.60;99.90;;;;;;5076219;28;39422;-77
2023/09/28 01:52:38;;;;;;;8.80;3.60;;;18.60;99.90;;;;;;5069993;28;36766;-77
2023/09/28 01:55:04;;;;;;;7.80;3.40;;;18.60;99.90;;;;;;5064284;28;38714;-76
2023/09/28 01:57:33;;;;;;;10.90;3.65;;;18.50;99.90;;;;;;5058681;28;37954;-77
2023/09/28 02:00:08;;;;;;;10.35;3.17;;;18.50;99.90;;;;;;5058182;28;35481;-77
2023/09/28 02:02:36;;;;;;;10.02;3.28;;;18.50;99.90;;;;;;5044078;28;37236;-77
2023/09/28 02:05:03;;;;;;;7.25;2.80;;;18.60;99.90;;;;;;5079465;28;38888;-78
2023/09/28 02:07:32;;;;;;;9.52;3.00;;;18.60;99.90;;;;;;5078326;28;39612;-78
2023/09/28 02:09:58;;;;;;;9.45;3.03;;;18.60;99.90;;;;;;5068562;28;37334;-78
2023/09/28 02:12:27;;;;;;;11.45;4.68;;;18.60;99.90;;;;;;5063399;28;38313;-78
2023/09/28 02:14:58;;;;;;;8.18;3.08;;;18.50;99.90;;;;;;5077398;28;38553;-78
2023/09/28 02:17:24;;;;;;;7.72;2.90;;;18.50;99.90;;;;;;5063210;28;40402;-78
2023/09/28 02:19:50;;;;;;;8.77;2.72;;;18.50;99.90;;;;;;5068138;28;37823;-79
2023/09/28 02:22:19;;;;;;;9.88;3.03;;;18.50;99.90;;;;;;5068791;28;37104;-79
2023/09/28 02:24:50;;;;;;;10.57;2.50;;;18.50;99.90;;;;;;5078890;28;40031;-79
2023/09/28 02:27:21;;;;;;;11.75;3.10;;;18.40;99.90;;;;;;5053361;28;37021;-78
2023/09/28 02:29:48;;;;;;;11.38;3.38;;;18.40;99.90;;;;;;5087161;28;39388;-79
2023/09/28 02:32:14;;;;;;;9.80;3.50;;;18.40;99.90;;;;;;5066703;28;37408;-78
2023/09/28 02:34:40;;;;;;;7.38;2.90;;;18.30;99.90;;;;;;5091797;28;39040;-79
2023/09/28 02:37:07;;;;;;;18.00;3.50;;;18.30;99.90;;;;;;5079231;28;38877;-79
2023/09/28 02:39:36;;;;;;;11.35;2.78;;;18.20;99.90;;;;;;5069034;28;38765;-78
2023/09/28 02:42:07;;;;;;;12.75;3.20;;;18.20;99.90;;;;;;5061735;28;36098;-78
2023/09/28 02:44:34;;;;;;;11.75;2.90;;;18.20;99.90;;;;;;5080210;28;38663;-78
2023/09/28 02:47:05;;;;;;;14.57;3.33;;;18.20;99.90;;;;;;5066516;28;38092;-78
2023/09/28 02:49:32;;;;;;;17.95;3.78;;;18.10;99.90;;;;;;5067398;28;47222;-78
2023/09/28 02:51:59;;;;;;;8.50;3.15;;;18.00;99.90;;;;;;5068744;28;35988;-78
2023/09/28 02:54:26;;;;;;;17.33;3.70;;;18.00;99.90;;;;;;5072189;28;37818;-78
2023/09/28 02:56:53;;;;;;;16.70;3.85;;;17.90;99.90;;;;;;5065016;28;38456;-78
2023/09/28 02:59:22;;;;;;;15.95;3.47;;;17.90;99.90;;;;;;5065240;28;37665;-78
2023/09/28 03:01:52;;;;;;;14.32;3.28;;;17.90;99.90;;;;;;5070992;28;36116;-78
2023/09/28 03:04:18;;;;;;;17.38;3.05;;;17.90;99.90;;;;;;5061209;28;37493;-78
2023/09/28 03:06:46;;;;;;;15.18;3.30;;;17.90;99.90;;;;;;5069127;28;37945;-78
2023/09/28 03:09:12;;;;;;;21.23;3.92;;;17.90;99.90;;;;;;5056891;28;37625;-78
2023/09/28 03:11:39;;;;;;;17.73;3.50;;;17.80;99.90;;;;;;5061842;28;36050;-78
2023/09/28 03:14:06;;;;;;;23.08;3.70;;;17.80;99.90;;;;;;5067027;28;38024;-78
2023/09/28 03:16:33;;;;;;;20.13;4.45;;;17.80;99.90;;;;;;5081667;28;37932;-78
2023/09/28 03:19:00;;;;;;;23.77;3.78;;;17.80;99.90;;;;;;5080925;27;38136;-78
2023/09/28 03:21:30;;;;;;;27.38;4.68;;;17.70;99.90;;;;;;5076950;28;47013;-78
2023/09/28 03:23:57;;;;;;;24.02;4.18;;;17.70;99.90;;;;;;5091924;28;39322;-78
2023/09/28 03:26:23;;;;;;;23.15;4.35;;;17.70;99.90;;;;;;5056253;28;37765;-78
2023/09/28 03:28:49;;;;;;;24.00;4.30;;;17.70;99.90;;;;;;5064918;28;37939;-78
2023/09/28 03:31:15;;;;;;;23.33;4.28;;;17.70;99.90;;;;;;5064716;28;36383;-78
2023/09/28 03:33:42;;;;;;;20.58;4.10;;;17.70;99.90;;;;;;5064454;28;37685;-78
2023/09/28 03:36:08;;;;;;;21.90;4.22;;;17.60;99.90;;;;;;5083565;28;38777;-79
2023/09/28 03:38:34;;;;;;;27.63;4.70;;;17.50;99.90;;;;;;5061188;28;38404;-78
2023/09/28 03:41:00;;;;;;;25.17;5.32;;;17.50;99.90;;;;;;5064500;28;36181;-78
2023/09/28 03:43:26;;;;;;;24.42;4.25;;;17.50;99.90;;;;;;5077436;28;38639;-78
2023/09/28 03:45:53;;;;;;;19.85;4.05;;;17.50;99.90;;;;;;5067854;28;38325;-79
2023/09/28 03:48:19;;;;;;;23.05;4.63;;;17.40;99.90;;;;;;5082515;27;39179;-81
2023/09/28 03:50:45;;;;;;;21.58;4.15;;;17.50;99.90;;;;;;5068215;28;37209;-79
2023/09/28 03:53:11;;;;;;;22.48;3.92;;;17.60;99.90;;;;;;5075323;28;39033;-79
2023/09/28 03:55:37;;;;;;;15.32;3.55;;;17.60;99.90;;;;;;5084121;28;38342;-79
2023/09/28 03:58:03;;;;;;;18.38;3.88;;;17.60;99.90;;;;;;5070067;28;37748;-79
2023/09/28 04:00:30;;;;;;;17.67;3.67;;;17.60;99.90;;;;;;5056297;28;36131;-79
2023/09/28 04:02:56;;;;;;;22.85;4.57;;;17.50;99.90;;;;;;5066212;28;38635;-79
2023/09/28 04:05:23;;;;;;;18.70;4.22;;;17.50;99.90;;;;;;5078589;28;38684;-80
2023/09/28 04:07:50;;;;;;;18.88;4.03;;;17.50;99.90;;;;;;5065105;28;37373;-79
2023/09/28 04:10:16;;;;;;;22.02;4.78;;;17.40;99.90;;;;;;5071313;28;36185;-80
2023/09/28 04:12:42;;;;;;;21.08;4.57;;;17.40;99.90;;;;;;5082696;28;38569;-80
2023/09/28 04:15:09;;;;;;;19.95;4.35;;;17.40;99.90;;;;;;5081901;28;38732;-79
2023/09/28 04:17:36;;;;;;;31.77;5.07;;;17.40;99.90;;;;;;5077088;28;39331;-79
2023/09/28 04:20:06;;;;;;;34.17;5.15;;;17.40;99.90;;;;;;5074603;28;37926;-80
2023/09/28 04:22:32;;;;;;;27.27;5.63;;;17.40;99.90;;;;;;5060736;28;47196;-79
2023/09/28 04:24:59;;;;;;;28.92;4.90;;;17.40;99.90;;;;;;5078580;28;39540;-80
2023/09/28 04:27:25;;;;;;;29.85;5.00;;;17.30;99.90;;;;;;5053359;28;37634;-79
2023/09/28 04:29:51;;;;;;;29.50;5.88;;;17.20;99.90;;;;;;5059484;28;36568;-78
2023/09/28 04:32:18;;;;;;;26.55;4.50;;;17.10;99.90;;;;;;5071560;28;39521;-79
2023/09/28 04:34:44;;;;;;;28.20;5.18;;;17.10;99.90;;;;;;5078528;28;36951;-81
2023/09/28 04:37:10;;;;;;;31.83;5.93;;;17.00;99.90;;;;;;5070711;28;37706;-78
2023/09/28 04:39:36;;;;;;;26.33;4.82;;;17.00;99.90;;;;;;5088663;27;37272;-79
2023/09/28 04:42:02;;;;;;;29.95;5.18;;;17.00;99.90;;;;;;5063142;28;38072;-79
2023/09/28 04:44:29;;;;;;;28.20;5.13;;;16.90;99.90;;;;;;5067471;28;38862;-79
2023/09/28 04:46:55;;;;;;;27.85;5.32;;;16.80;99.90;;;;;;5068113;28;39030;-79
2023/09/28 04:49:22;;;;;;;30.40;4.63;;;16.80;99.90;;;;;;5089196;28;36432;-79
2023/09/28 04:51:48;;;;;;;24.77;4.88;;;16.80;99.90;;;;;;5082168;28;39952;-79
2023/09/28 04:54:14;;;;;;;29.90;5.15;;;16.80;99.90;;;;;;5078379;28;37419;-79
2023/09/28 04:56:41;;;;;;;22.08;5.03;;;16.80;99.90;;;;;;5070758;28;37509;-79
2023/09/28 04:59:08;;;;;;;26.10;5.20;;;16.80;99.90;;;;;;5075860;28;37042;-79
2023/09/28 05:01:34;;;;;;;25.83;5.10;;;16.80;99.90;;;;;;5084726;28;38685;-79
2023/09/28 05:04:00;;;;;;;31.80;5.47;;;16.80;99.90;;;;;;5077915;28;39877;-80
2023/09/28 05:06:27;;;;;;;32.83;5.43;;;16.70;99.90;;;;;;5071618;28;38687;-79
2023/09/28 05:08:53;;;;;;;26.27;4.38;;;16.70;99.90;;;;;;5088840;28;37578;-80
2023/09/28 05:11:20;;;;;;;28.65;4.88;;;16.70;99.90;;;;;;5067793;27;38732;-79
2023/09/28 05:13:47;;;;;;;24.17;5.25;;;16.70;99.90;;;;;;5070405;28;20089;-79
2023/09/28 05:16:17;;;;;;;28.77;5.32;;;16.70;99.90;;;;;;5064150;28;38713;-79
2023/09/28 05:18:43;;;;;;;35.45;5.57;;;16.80;99.90;;;;;;5054768;28;37628;-79
2023/09/28 05:21:09;;;;;;;27.13;5.28;;;16.70;99.90;;;;;;5074812;28;39722;-79
2023/09/28 05:23:36;;;;;;;22.75;4.97;;;16.80;99.90;;;;;;5059767;28;37709;-79
2023/09/28 05:26:04;;;;;;;28.55;5.88;;;16.70;99.90;;;;;;5079665;28;38251;-79
2023/09/28 05:28:30;;;;;;;31.33;5.57;;;16.70;99.90;;;;;;5054985;28;45467;-80
2023/09/28 05:30:56;;;;;;;32.72;5.03;;;16.70;99.90;;;;;;5079682;28;38250;-80
2023/09/28 05:33:22;;;;;;;36.53;6.40;;;16.70;99.90;;;;;;5062226;28;38517;-80
2023/09/28 05:35:49;;;;;;;34.45;5.70;;;16.60;99.90;;;;;;5072780;28;38444;-79
2023/09/28 05:38:15;;;;;;;39.28;5.70;;;16.50;99.90;;;;;;5075729;28;36886;-79
2023/09/28 05:40:41;;;;;;;32.38;5.68;;;16.40;99.90;;;;;;5057191;28;38658;-78
2023/09/28 05:43:09;;;;;;;27.58;5.40;;;16.40;99.90;;;;;;5076857;28;39615;-78
2023/09/28 05:45:35;;;;;;;25.27;4.72;;;16.30;99.90;;;;;;5079701;28;37956;-79
2023/09/28 05:48:01;;;;;;;28.42;5.00;;;16.30;99.90;;;;;;5083643;28;35746;-78
2023/09/28 05:50:27;;;;;;;30.27;5.20;;;16.20;99.90;;;;;;5064734;28;40767;-78
2023/09/28 05:52:56;;;;;;;34.50;6.32;;;16.10;99.90;;;;;;5063743;28;37735;-78
2023/09/28 05:55:24;;;;;;;29.85;4.95;;;16.20;99.90;;;;;;5083626;28;38615;-78
2023/09/28 05:57:54;;;;;;;25.13;5.30;;;16.10;99.90;;;;;;5069120;28;36399;-77
2023/09/28 06:00:21;;;;;;;30.42;6.45;;;16.10;99.90;;;;;;5058411;28;37568;-78
2023/09/28 06:02:47;;;;;;;26.63;4.30;;;16.10;99.90;;;;;;5070840;28;39140;-78
2023/09/28 06:05:13;;;;;;;24.08;5.25;;;16.10;99.90;;;;;;5081512;28;38588;-78
2023/09/28 06:07:39;;;;;;;27.83;4.30;;;16.10;99.90;;;;;;5070052;28;36169;-79
2023/09/28 06:10:08;;;;;;;36.50;6.03;;;16.10;99.90;;;;;;5080903;28;39563;-77
2023/09/28 06:12:34;;;;;;;31.95;6.00;;;16.10;99.90;;;;;;5086705;28;37895;-77
2023/09/28 06:15:04;;;;;;;33.22;6.20;;;16.20;99.90;;;;;;5074848;28;38571;-79
2023/09/28 06:17:30;;;;;;;29.33;5.82;;;16.20;99.90;;;;;;5070334;28;48541;-77
2023/09/28 06:19:56;;;;;;;29.00;4.90;;;16.20;99.90;;;;;;5057072;28;38821;-78
2023/09/28 06:22:22;;;;;;;29.10;5.13;;;16.20;99.90;;;;;;5077602;28;40294;-78
2023/09/28 06:24:48;;;;;;;32.15;5.88;;;16.30;99.90;;;;;;5062832;28;39410;-78
2023/09/28 06:27:15;;;;;;;31.20;5.00;;;16.40;99.90;;;;;;5061639;28;36010;-78
2023/09/28 06:29:41;;;;;;;31.35;5.80;;;16.40;99.90;;;;;;5080541;28;39033;-78
2023/09/28 06:32:07;;;;;;;34.25;4.80;;;16.50;99.90;;;;;;5060482;28;37772;-78
2023/09/28 06:34:33;;;;;;;35.10;5.38;;;16.60;99.90;;;;;;5056433;28;38464;-78
2023/09/28 06:36:59;;;;;;;24.45;4.70;;;16.70;99.90;;;;;;5078944;28;37127;-77
2023/09/28 06:39:25;;;;;;;26.65;4.53;;;16.80;99.90;;;;;;5074018;28;37853;-78
2023/09/28 06:41:51;;;;;;;30.13;5.70;;;16.90;99.90;;;;;;5075842;28;38658;-78
2023/09/28 06:44:17;;;;;;;33.67;5.70;;;16.90;99.90;;;;;;5073888;28;37194;-78
2023/09/28 06:46:44;;;;;;;35.55;5.50;;;17.00;99.90;;;;;;5080703;28;38577;-79
2023/09/28 06:49:12;;;;;;;29.80;5.30;;;17.10;99.90;;;;;;5071347;28;39655;-78
2023/09/28 06:51:38;;;;;;;24.02;5.47;;;17.10;99.90;;;;;;5066866;28;39397;-79
2023/09/28 06:54:04;;;;;;;28.90;5.68;;;17.30;99.90;;;;;;5073596;28;39619;-79
2023/09/28 06:56:30;;;;;;;27.05;4.88;;;17.20;99.90;;;;;;5087129;28;36121;-79
2023/09/28 06:58:58;;;;;;;25.38;4.85;;;17.30;99.90;;;;;;5080958;28;38535;-79
2023/09/28 07:01:24;;;;;;;27.35;6.13;;;17.20;99.90;;;;;;5085824;28;38461;-79
2023/09/28 07:03:52;;;;;;;29.55;5.38;;;17.20;99.90;;;;;;5084914;28;38474;-79
2023/09/28 07:06:21;;;;;;;28.98;5.25;;;17.20;99.90;;;;;;5065492;27;37314;-77
2023/09/28 07:08:48;;;;;;;24.27;5.22;;;17.10;99.90;;;;;;5077135;28;39126;-79
2023/09/28 07:11:14;;;;;;;29.45;5.97;;;17.10;99.90;;;;;;5088702;28;39078;-80
2023/09/28 07:13:41;;;;;;;31.17;5.28;;;17.10;99.90;;;;;;5067602;28;37870;-77
2023/09/28 07:16:10;;;;;;;29.90;5.15;;;17.10;99.90;;;;;;5062607;28;39101;-76
2023/09/28 07:18:36;;;;;;;30.90;5.50;;;17.20;99.90;;;;;;5086560;28;39348;-78
2023/09/28 07:21:03;;;;;;;34.90;6.50;;;17.20;99.90;;;;;;5062909;28;38046;-78
2023/09/28 07:23:29;;;;;;;29.70;5.65;;;17.30;99.90;;;;;;5074156;28;38584;-78
2023/09/28 07:25:55;;;;;;;25.38;6.22;;;17.30;99.90;;;;;;5069874;28;36973;-78
2023/09/28 07:28:22;;;;;;;26.77;4.45;;;17.30;99.90;;;;;;5070088;28;37787;-78
2023/09/28 07:30:48;;;;;;;25.27;5.18;;;17.40;99.90;;;;;;5063346;28;37542;-78
2023/09/28 07:33:15;;;;;;;31.52;5.60;;;17.40;99.90;;;;;;5083287;28;38261;-78
2023/09/28 07:35:45;;;;;;;31.98;6.75;;;17.40;99.90;;;;;;5071929;28;38098;-78
2023/09/28 07:38:11;;;;;;;29.27;5.28;;;17.40;99.90;;;;;;5084688;28;39785;-78
2023/09/28 07:40:37;;;;;;;25.85;4.97;;;17.50;99.90;;;;;;5060274;28;38951;-77
2023/09/28 07:43:03;;;;;;;24.38;5.60;;;17.60;99.90;;;;;;5084459;28;38090;-77
2023/09/28 07:45:30;;;;;;;26.70;4.88;;;17.60;99.90;;;;;;5067687;28;37379;-77
2023/09/28 07:47:56;;;;;;;36.28;5.60;;;17.60;99.90;;;;;;5065317;28;38594;-77
2023/09/28 07:50:23;;;;;;;27.15;5.72;;;17.60;99.90;;;;;;5078034;28;38561;-77
2023/09/28 07:52:49;;;;;;;23.38;4.70;;;17.70;99.90;;;;;;5067124;28;38637;-77
2023/09/28 07:55:16;;;;;;;28.67;5.25;;;17.80;99.90;;;;;;5077747;28;38056;-77
2023/09/28 07:57:42;;;;;;;25.05;4.78;;;17.90;99.90;;;;;;5065945;28;37908;-77
2023/09/28 08:00:11;;;;;;;24.50;5.25;;;17.90;99.90;;;;;;5066499;28;37899;-78
2023/09/28 08:02:38;;;;;;;28.52;5.50;;;17.90;99.90;;;;;;5060988;28;37826;-76
2023/09/28 08:05:05;;;;;;;21.92;4.82;;;17.90;99.90;;;;;;5071644;28;36261;-76
2023/09/28 08:07:33;;;;;;;28.98;5.30;;;18.10;99.90;;;;;;5061347;28;38083;-76
2023/09/28 08:10:03;;;;;;;27.90;6.13;;;18.10;99.90;;;;;;5069018;28;38911;-76
2023/09/28 08:12:29;;;;;;;24.15;4.72;;;18.20;99.90;;;;;;5083059;27;39229;-77
2023/09/28 08:14:55;;;;;;;26.75;5.65;;;18.10;99.90;;;;;;5071274;28;36480;-76
2023/09/28 08:17:22;;;;;;;31.80;5.15;;;18.10;99.90;;;;;;5069469;28;37620;-78
2023/09/28 08:19:48;;;;;;;28.17;5.50;;;18.10;99.90;;;;;;5066499;28;40777;-76
2023/09/28 08:22:14;;;;;;;31.65;5.70;;;18.10;99.90;;;;;;5089158;28;39151;-77
2023/09/28 08:24:40;;;;;;;24.58;5.15;;;18.10;99.90;;;;;;5075021;28;35797;-77
2023/09/28 08:27:06;;;;;;;22.02;4.60;;;18.10;99.90;;;;;;5091609;28;39050;-77
2023/09/28 08:29:34;;;;;;;27.98;4.63;;;18.10;99.90;;;;;;5072183;28;39880;-77
2023/09/28 08:32:00;;;;;;;28.00;5.38;;;18.10;99.90;;;;;;5072009;28;40001;-77
2023/09/28 08:34:26;;;;;;;29.60;6.05;;;18.20;99.90;;;;;;5067181;28;37753;-77
2023/09/28 08:36:53;;;;;;;26.08;5.00;;;18.20;99.90;;;;;;5076676;28;39257;-77
2023/09/28 08:39:19;;;;;;;21.75;4.78;;;18.30;99.90;;;;;;5088950;27;37761;-77
2023/09/28 08:41:51;;;;;;;23.20;4.55;;;18.40;99.90;;;;;;5095204;28;38239;-78
2023/09/28 08:44:21;;;;;;;31.27;5.60;;;18.30;99.90;;;;;;5076846;28;37800;-79
2023/09/28 08:46:48;;;;;;;26.05;5.20;;;18.30;99.90;;;;;;5081212;28;38344;-77
2023/09/28 08:49:15;;;;;;;28.15;5.43;;;18.30;99.90;;;;;;5069193;27;38419;-79
2023/09/28 08:51:44;;;;;;;31.50;4.72;;;18.40;99.90;;;;;;5066041;28;37163;-77
2023/09/28 08:54:12;;;;;;;24.65;4.60;;;18.50;99.90;;;;;;5075251;28;37092;-77
2023/09/28 08:56:39;;;;;;;22.95;4.78;;;18.60;99.90;;;;;;5093882;28;39813;-77
2023/09/28 08:59:06;;;;;;;20.42;4.55;;;18.60;99.90;;;;;;5087830;28;38949;-77
2023/09/28 09:01:33;;;;;;;31.17;5.43;;;18.70;99.90;;;;;;5087795;28;38262;-77
2023/09/28 09:04:00;;;;;;;32.67;5.10;;;18.70;99.90;;;;;;5086742;28;36914;-77
2023/09/28 09:06:31;;;;;;;24.40;4.03;;;18.60;99.90;;;;;;5064976;28;38837;-78
2023/09/28 09:09:11;;;;;;;32.73;4.80;;;18.50;99.90;;;;;;5101989;27;38656;-77
2023/09/28 09:11:37;;;;;;;26.08;4.53;;;18.50;99.90;;;;;;5046332;28;46972;-77
2023/09/28 09:14:03;;;;;;;24.65;4.47;;;18.60;99.90;;;;;;5054331;28;37022;-77
2023/09/28 09:16:30;;;;;;;21.77;5.30;;;18.70;99.90;;;;;;5084087;27;38289;-78
2023/09/28 09:18:57;;;;;;;21.67;4.82;;;18.70;99.90;;;;;;5070974;28;37800;-75
2023/09/28 09:21:24;;;;;;;19.08;4.28;;;18.90;99.90;;;;;;5086077;28;39422;-73
2023/09/28 09:24:04;;;;;;;27.10;4.88;;;18.80;99.90;;;;;;5055234;28;37968;-73
2023/09/28 09:26:44;;;;;;;25.60;4.82;;;18.80;99.90;;;;;;5065814;28;47544;-76
2023/09/28 09:29:13;;;;;;;23.00;4.03;;;18.90;99.90;;;;;;5073216;28;37895;-73
2023/09/28 09:31:41;;;;;;;25.92;4.13;;;19.00;99.90;;;;;;5088113;28;37019;-77
2023/09/28 09:34:17;;;;;;;22.23;4.75;;;19.10;99.90;;;;;;5068177;28;36298;-76
2023/09/28 09:36:51;;;;;;;23.42;5.88;;;19.20;99.90;;;;;;5086234;27;38641;-75
2023/09/28 09:39:22;;;;;;;24.75;4.05;;;19.00;99.90;;;;;;5090488;28;38976;-75
2023/09/28 09:41:49;;;;;;;24.17;4.63;;;19.20;99.90;;;;;;5063244;28;38239;-75
2023/09/28 09:44:20;;;;;;;23.20;4.43;;;19.10;99.90;;;;;;5087466;28;37151;-75
2023/09/28 09:46:50;;;;;;;23.17;4.60;;;19.20;99.90;;;;;;5083583;28;38985;-75
2023/09/28 09:49:18;;;;;;;25.88;5.22;;;19.20;99.90;;;;;;5071181;28;37779;-76
2023/09/28 09:51:45;;;;;;;22.25;4.68;;;19.20;99.90;;;;;;5081812;28;37378;-76
2023/09/28 09:54:19;;;;;;;24.42;4.53;;;19.10;99.90;;;;;;5081473;28;38275;-76
2023/09/28 09:56:48;;;;;;;27.27;5.03;;;19.20;99.90;;;;;;5057441;28;37607;-76
2023/09/28 09:59:18;;;;;;;23.80;4.28;;;19.20;99.90;;;;;;5065269;28;39067;-75
2023/09/28 10:01:48;;;;;;;23.42;4.75;;;19.30;99.90;;;;;;5065935;28;39359;-75
2023/09/28 10:04:26;;;;;;;23.83;4.65;;;19.30;99.90;;;;;;5097123;28;37013;-76
2023/09/28 10:06:56;;;;;;;29.42;4.70;;;19.10;99.90;;;;;;5062823;28;37810;-76
2023/09/28 10:09:22;;;;;;;28.15;4.80;;;19.00;99.90;;;;;;5078380;28;39152;-75
2023/09/28 10:11:52;;;;;;;21.85;4.95;;;19.00;99.90;;;;;;5085053;28;39280;-76
2023/09/28 10:14:21;;;;;;;26.95;4.75;;;19.00;99.90;;;;;;5067113;28;37099;-76
2023/09/28 10:16:55;;;;;;;18.63;4.05;;;19.10;99.90;;;;;;5075962;28;37637;-75
2023/09/28 10:19:24;;;;;;;19.00;4.32;;;19.20;99.90;;;;;;5092102;27;39738;-76
2023/09/28 10:21:53;;;;;;;19.73;4.68;;;19.20;99.90;;;;;;5093684;27;38373;-76
2023/09/28 10:24:29;;;;;;;26.13;5.15;;;19.20;99.90;;;;;;5065145;28;36103;-77
2023/09/28 10:26:55;;;;;;;27.23;5.18;;;19.30;99.90;;;;;;5063371;28;37930;-76
2023/09/28 10:29:30;;;;;;;23.55;4.90;;;19.40;99.90;;;;;;5085981;28;39297;-75
2023/09/28 10:31:57;;;;;;;21.40;4.85;;;19.20;99.90;;;;;;5097194;28;38372;-75
2023/09/28 10:34:27;;;;;;;28.40;5.32;;;19.40;99.90;;;;;;5071391;28;36285;-75
2023/09/28 10:37:09;;;;;;;23.15;4.18;;;19.40;99.90;;;;;;5086040;28;39120;-75
2023/09/28 10:39:36;;;;;;;19.75;4.43;;;19.40;99.90;;;;;;5081457;28;48489;-76
2023/09/28 10:42:15;;;;;;;23.02;4.55;;;19.40;99.90;;;;;;5076849;28;38570;-77
2023/09/28 10:44:46;;;;;;;20.40;4.57;;;19.40;99.90;;;;;;5080913;28;37060;-76
2023/09/28 10:47:12;;;;;;;18.45;3.92;;;19.50;99.90;;;;;;5060414;28;38205;-77
2023/09/28 10:49:39;;;;;;;20.70;4.00;;;19.60;99.90;;;;;;5081094;28;39311;-76
2023/09/28 10:52:09;;;;;;;24.27;4.88;;;19.50;99.90;;;;;;5072912;28;38231;-75
2023/09/28 10:54:35;;;;;;;24.33;4.65;;;19.50;99.90;;;;;;5074136;28;37578;-77
2023/09/28 10:57:04;;;;;;;19.80;4.05;;;19.40;99.90;;;;;;5072728;28;37140;-77
2023/09/28 10:59:30;;;;;;;19.35;5.10;;;19.50;99.90;;;;;;5063649;28;37703;-78
2023/09/28 11:01:57;;;;;;;17.45;3.50;;;19.50;99.90;;;;;;5042559;28;37400;-79
2023/09/28 11:04:23;;;;;;;22.30;4.35;;;19.60;99.90;;;;;;5054226;28;37177;-78
2023/09/28 11:06:53;;;;;;;26.55;4.53;;;19.60;99.90;;;;;;5077783;28;38855;-77
2023/09/28 11:09:24;;;;;;;23.90;4.43;;;19.40;99.90;;;;;;5064015;28;39018;-78
2023/09/28 11:11:52;;;;;;;21.70;3.85;;;19.30;99.90;;;;;;5048085;28;37640;-78
2023/09/28 11:14:20;;;;;;;21.63;4.03;;;19.50;99.90;;;;;;5048393;28;36090;-76
2023/09/28 11:16:49;;;;;;;19.05;3.63;;;19.50;99.90;;;;;;5066405;28;37792;-77
2023/09/28 11:19:15;;;;;;;18.55;3.40;;;19.60;99.90;;;;;;5054122;28;40388;-76
2023/09/28 11:21:42;;;;;;;17.85;4.40;;;19.80;99.90;;;;;;5078262;28;37311;-77
2023/09/28 11:24:08;;;;;;;19.27;4.03;;;19.80;99.90;;;;;;5069535;27;36325;-77
2023/09/28 11:26:36;;;;;;;19.70;4.05;;;19.80;99.90;;;;;;5073855;28;38985;-77
2023/09/28 11:29:04;;;;;;;23.75;4.10;;;19.80;99.90;;;;;;5069286;27;37307;-76
2023/09/28 11:31:35;;;;;;;26.02;4.00;;;20.00;99.90;;;;;;5068862;28;39622;-76
2023/09/28 11:34:05;;;;;;;19.10;4.35;;;20.20;99.90;;;;;;5074647;28;37404;-78
2023/09/28 11:36:48;;;;;;;22.25;4.25;;;20.00;99.90;;;;;;5081709;28;48614;-75
2023/09/28 11:39:15;;;;;;;18.27;3.88;;;20.00;97.50;;;;;;5065219;28;38605;-76
2023/09/28 11:41:58;;;;;;;16.70;3.60;;;20.00;99.90;;;;;;5058941;28;38713;-75
2023/09/28 11:44:28;;;;;;;17.10;4.07;;;20.10;99.90;;;;;;5080710;28;36495;-76
2023/09/28 11:46:56;;;;;;;17.25;4.03;;;20.00;99.10;;;;;;5050231;28;38667;-76
2023/09/28 11:49:23;;;;;;;18.13;3.85;;;19.90;99.90;;;;;;5053706;27;39807;-76
2023/09/28 11:51:55;;;;;;;18.50;3.60;;;19.90;99.90;;;;;;5076685;28;38880;-76
2023/09/28 11:54:22;;;;;;;14.97;3.47;;;19.90;99.90;;;;;;5054483;28;36527;-76
2023/09/28 11:56:49;;;;;;;16.00;3.88;;;20.00;99.90;;;;;;5063051;28;37671;-75
2023/09/28 11:59:16;;;;;;;16.73;3.30;;;20.10;99.90;;;;;;5072954;27;39283;-76
2023/09/28 12:01:44;;;;;;;20.10;4.18;;;20.20;99.90;;;;;;5080981;28;39150;-76
2023/09/28 12:04:10;;;;;;;17.58;4.35;;;20.20;99.90;;;;;;5068918;28;36333;-76
2023/09/28 12:06:37;;;;;;;20.40;4.25;;;20.10;99.90;;;;;;5076928;28;38706;-77
2023/09/28 12:09:05;;;;;;;22.42;4.15;;;20.10;99.90;;;;;;5061648;27;38224;-77
2023/09/28 12:11:33;;;;;;;10.98;2.75;;;20.10;99.90;;;;;;5088200;28;38105;-76
2023/09/28 12:13:59;;;;;;;16.42;3.85;;;20.00;99.90;;;;;;5080987;28;38565;-77
2023/09/28 12:16:26;;;;;;;16.65;4.03;;;20.00;99.90;;;;;;5084563;28;39416;-79
2023/09/28 12:18:52;;;;;;;20.85;3.72;;;19.80;99.90;;;;;;5089398;27;38656;-79
2023/09/28 12:21:45;;;;;;;21.60;3.47;;;19.80;99.70;;;;;;5069902;28;38568;-79
2023/09/28 12:24:26;;;;;;;13.20;3.85;;;19.80;99.90;;;;;;5054366;28;37118;-79
2023/09/28 12:27:05;;;;;;;;;;;;;;;;;;;;;
2023/09/28 12:30:21;;;;;;;13.70;3.58;;;19.80;99.90;;;;;;5030525;28;48494;-79
2023/09/28 12:32:54;;;;;;;16.35;3.53;;;19.90;91.70;;;;;;5034973;28;48023;-78
2023/09/28 12:35:23;;;;;;;13.25;3.17;;;19.90;80.00;;;;;;5029544;28;37442;-78
2023/09/28 12:38:10;;;;;;;12.50;3.13;;;20.00;76.90;;;;;;5047505;28;38779;-78
2023/09/28 12:41:07;;;;;;;15.43;3.13;;;20.00;84.50;;;;;;5064080;28;48395;-78
2023/09/28 12:44:06;;;;;;;17.63;3.13;;;19.80;92.40;;;;;;5061094;28;48796;-78
2023/09/28 12:46:35;;;;;;;16.10;3.15;;;19.80;99.90;;;;;;5039897;28;48079;-78